Terminal Aerodrome Forecast
Issued by NWS Mt. Holly, NJ

Home | Current Version | Previous Version | Text Only | Print | Product List | Glossary On
Versions: 1 2 3 4 5 6 7 8 9 10 11 12 13 14 15 16 17 18 19 20 21 22
000
FTUS41 KPHI 261720
TAFACY
TAF
KACY 261720Z 2618/2718 29015G25KT P6SM SCT050
     FM262200 28010KT P6SM FEW050
     FM270300 24004KT P6SM SKC
     FM271200 20008KT P6SM BKN100=

USA.gov is the U.S. government's official web portal to all federal, state and local government web resources and services.